Date,TemperatureHighF,TemperatureAvgF,TemperatureLowF,DewpointHighF,DewpointAvgF,DewpointLowF,HumidityHigh,HumidityAvg,HumidityLow,PressureMaxIn,PressureMinIn,WindSpeedMaxMPH,WindSpeedAvgMPH,GustSpeedMaxMPH,PrecipitationSumIn
2013-1-1,48.0,39.3,34.0,38.0,34.4,31.0,100,84,61,30.21,30.14,10,2,22,0.00
2013-1-2,57.0,40.1,31.0,38.0,32.9,30.0,98,78,45,30.19,30.08,3,0,7,0.00
2013-1-3,56.0,40.7,32.0,42.0,35.8,30.0,98,84,58,30.22,30.08,5,1,8,0.00
2013-1-4,59.0,42.5,35.0,42.0,37.1,34.0,100,84,47,30.24,30.13,5,0,7,0.00
2013-1-5,53.0,44.2,37.0,47.0,42.0,36.0,100,93,73,30.21,30.01,5,1,11,0.20
2013-1-6,46.0,42.0,37.0,45.0,41.8,37.0,100,99,95,30.13,30.01,6,1,14,0.20
2013-1-7,57.0,44.4,36.0,47.0,41.8,36.0,100,92,63,30.21,30.09,5,1,9,0.01
2013-1-8,60.0,45.5,38.0,49.0,42.5,38.0,100,91,60,30.20,30.09,5,1,7,0.01
2013-1-9,50.0,42.9,37.0,49.0,41.7,35.0,100,96,83,30.12,29.94,12,3,22,0.03
2013-1-10,50.0,39.4,33.0,39.0,34.3,32.0,100,83,56,30.11,29.97,9,4,15,0.03
2013-1-11,50.0,39.6,32.0,39.0,34.2,30.0,100,82,56,30.19,30.06,9,2,16,0.16
2013-1-12,49.0,38.9,31.0,35.0,30.3,26.0,93,73,42,30.18,30.08,8,2,17,0.16
2013-1-13,49.0,36.7,27.0,28.0,23.3,14.0,90,62,32,30.18,30.09,11,2,28,0.00
2013-1-14,49.0,39.7,32.0,26.0,19.1,13.0,73,45,28,30.33,30.14,14,5,36,0.00
2013-1-15,52.0,38.1,31.0,34.0,27.6,24.0,82,67,39,30.39,30.31,5,1,10,0.00
2013-1-16,58.0,41.3,31.0,39.0,31.7,29.0,94,71,40,30.36,30.21,7,1,10,0.00
2013-1-17,63.0,44.9,34.0,41.0,32.9,30.0,91,67,34,30.22,30.11,7,1,12,0.00
2013-1-18,61.0,45.9,35.0,42.0,33.2,26.0,95,66,32,30.19,30.10,9,2,15,0.00
2013-1-19,64.0,46.7,37.0,42.0,33.2,29.0,81,62,35,30.21,30.12,5,1,11,0.00
2013-1-20,62.0,46.5,37.0,41.0,33.8,29.0,90,65,31,30.19,30.10,6,1,11,0.00
2013-1-21,66.0,45.9,34.0,45.0,34.2,28.0,90,65,35,30.15,30.04,7,1,12,0.00
2013-1-22,64.0,46.7,37.0,45.0,39.9,33.0,95,79,49,30.09,29.98,6,1,10,0.00
2013-1-23,53.0,48.5,45.0,51.0,45.7,41.0,100,90,73,30.06,29.91,5,1,14,0.09
2013-1-24,55.0,50.6,46.0,52.0,49.7,46.0,100,97,83,30.16,30.02,10,1,17,0.09
2013-1-25,67.0,54.4,49.0,57.0,51.9,49.0,100,92,66,30.16,30.03,6,1,11,0.03
2013-1-26,60.0,48.2,38.0,51.0,44.3,37.0,100,88,51,30.03,29.96,11,2,17,0.00
2013-1-27,57.0,43.6,35.0,42.0,36.8,32.0,100,80,42,30.11,29.99,8,3,14,0.00
2013-1-28,58.0,45.0,35.0,42.0,38.2,34.0,100,79,48,30.24,30.08,9,4,15,0.00
2013-1-29,60.0,45.1,35.0,44.0,39.1,35.0,100,82,49,30.30,30.21,9,2,21,0.00
2013-1-30,67.0,54.6,43.0,45.0,40.7,38.0,87,61,37,30.31,30.23,10,2,26,0.00
2013-1-31,67.0,51.7,38.0,50.0,44.1,37.0,98,78,52,30.25,30.15,6,1,8,0.00
2013-2-1,68.0,49.8,39.0,50.0,44.2,39.0,100,83,49,30.19,30.10,5,1,9,0.00
2013-2-2,62.0,49.5,43.0,50.0,45.8,42.0,99,88,62,30.25,30.17,5,0,7,0.00
2013-2-3,62.0,48.2,41.0,49.0,44.2,40.0,100,88,56,30.21,30.10,6,1,11,0.00
2013-2-4,66.0,48.6,38.0,50.0,44.6,38.0,100,88,54,30.13,30.02,6,1,9,0.00
2013-2-5,57.0,47.2,41.0,47.0,44.3,39.0,100,91,67,30.10,30.02,9,2,17,0.00
2013-2-6,61.0,44.6,35.0,47.0,40.1,35.0,100,87,50,30.14,30.07,8,2,12,0.01
2013-2-7,58.0,44.4,38.0,47.0,40.6,36.0,100,88,56,30.14,29.94,10,2,17,0.02
2013-2-8,54.0,43.2,37.0,42.0,38.0,25.0,100,84,38,29.95,29.87,15,3,34,0.02
2013-2-9,59.0,45.2,34.0,35.0,30.0,25.0,83,57,36,30.05,29.93,16,3,34,0.01
2013-2-10,60.0,44.5,33.0,39.0,34.7,30.0,92,71,42,30.06,29.98,8,2,18,0.00
2013-2-11,62.0,46.9,36.0,37.0,31.8,26.0,84,59,28,30.19,30.03,8,2,15,0.00
2013-2-12,62.0,45.9,36.0,44.0,36.5,31.0,92,72,43,30.31,30.19,8,1,10,0.00
2013-2-13,67.0,48.3,36.0,45.0,38.6,35.0,96,73,33,30.30,30.17,7,2,12,0.00
2013-2-14,68.0,54.5,41.0,43.0,40.2,37.0,92,61,35,30.21,30.15,15,4,34,0.00
2013-2-15,72.0,54.2,43.0,48.0,42.7,38.0,86,68,40,30.27,30.19,6,1,8,0.00
2013-2-16,70.0,52.7,42.0,50.0,44.1,40.0,96,75,48,30.22,30.02,5,1,8,0.00
2013-2-17,67.0,50.2,41.0,48.0,42.6,38.0,100,79,39,30.03,29.94,6,1,10,0.00
2013-2-18,52.0,44.6,38.0,44.0,40.5,37.0,100,86,67,29.99,29.91,10,4,19,0.00
2013-2-19,46.0,41.1,36.0,44.0,39.0,34.0,100,92,79,29.92,29.69,10,4,19,0.41
2013-2-20,59.0,43.5,32.0,41.0,36.2,31.0,99,79,40,30.01,29.75,11,3,17,0.01
2013-2-21,60.0,44.6,34.0,38.0,35.1,32.0,100,74,38,30.12,29.98,11,3,24,0.00
2013-2-22,65.0,46.9,35.0,45.0,38.9,34.0,98,77,40,30.21,30.11,8,2,15,0.00
2013-2-23,60.0,48.1,41.0,45.0,38.8,29.0,100,74,39,30.21,30.11,10,4,21,0.00
2013-2-24,61.0,48.7,40.0,36.0,28.1,22.0,82,47,24,30.21,30.13,11,4,23,0.00
2013-2-25,65.0,47.8,35.0,46.0,36.0,23.0,94,67,25,30.21,30.12,10,2,17,0.00
2013-2-26,70.0,51.5,37.0,37.0,29.6,18.0,93,51,17,30.19,30.10,10,3,20,0.00
2013-2-27,71.0,52.0,39.0,41.0,36.3,31.0,79,58,25,30.34,30.17,6,1,10,0.00
2013-2-28,72.0,53.4,41.0,52.0,46.3,40.0,97,79,49,30.42,30.34,8,2,13,0.00
2013-3-1,73.0,56.5,45.0,54.0,46.3,39.0,100,72,39,30.42,30.24,9,2,15,0.00
2013-3-2,71.0,58.0,48.0,54.0,48.3,40.0,92,72,48,30.25,30.06,5,1,8,0.00
2013-3-3,67.0,54.2,46.0,52.0,47.3,44.0,97,79,50,30.10,30.02,9,2,19,0.00
2013-3-4,61.0,48.5,42.0,50.0,44.7,40.0,99,88,61,30.12,30.01,5,1,12,0.00
2013-3-5,62.0,48.5,39.0,46.0,41.6,38.0,100,79,45,30.02,29.83,9,3,23,0.02
2013-3-6,56.0,47.7,38.0,46.0,42.1,37.0,97,82,56,30.04,29.82,9,4,21,0.10
2013-3-7,55.0,45.9,36.0,45.0,39.4,36.0,100,80,50,29.95,29.81,8,2,13,0.05
2013-3-8,63.0,47.9,38.0,47.0,41.9,37.0,99,82,48,30.01,29.77,8,2,15,0.05
2013-3-9,67.0,50.2,38.0,47.0,38.7,34.0,100,71,31,30.28,30.01,11,2,21,0.00
2013-3-10,73.0,52.9,39.0,43.0,37.5,25.0,94,63,18,30.30,30.23,8,2,15,0.00
2013-3-11,75.0,55.3,41.0,47.0,41.2,36.0,85,62,30,30.24,30.09,6,1,12,0.00
2013-3-12,78.0,57.9,43.0,52.0,45.2,39.0,90,65,38,30.14,30.07,7,1,12,0.00
2013-3-13,79.0,60.9,47.0,58.0,50.3,45.0,95,71,41,30.14,30.08,7,2,12,0.00
2013-3-14,76.0,60.2,50.0,57.0,49.7,42.0,96,71,39,30.15,30.08,7,2,13,0.00
2013-3-15,76.0,56.7,45.0,55.0,46.7,42.0,91,72,41,30.13,30.03,7,1,12,0.00
2013-3-16,76.0,55.4,41.0,54.0,46.5,41.0,100,77,32,30.09,30.01,9,2,15,0.00
2013-3-17,71.0,53.4,41.0,47.0,42.7,39.0,98,71,34,30.12,30.02,6,2,10,0.00
2013-3-18,68.0,53.3,41.0,49.0,43.8,38.0,95,72,45,30.11,30.01,6,1,12,0.00
2013-3-19,73.0,54.8,44.0,50.0,44.7,37.0,95,72,37,30.12,30.03,12,2,20,0.06
2013-3-20,64.0,54.6,50.0,56.0,51.5,48.0,98,90,64,30.11,30.04,10,3,16,0.07
2013-3-21,69.0,52.4,43.0,50.0,43.6,39.0,99,76,39,30.11,29.98,10,2,16,0.00
2013-3-22,71.0,54.9,42.0,43.0,27.1,13.0,93,42,13,30.08,30.00,11,5,22,0.00
2013-3-23,73.0,52.7,39.0,38.0,32.5,26.0,70,50,21,30.11,30.02,7,2,10,0.00
2013-3-24,75.0,55.3,41.0,49.0,41.5,36.0,87,63,32,30.06,29.95,7,2,12,0.00
2013-3-25,66.0,49.9,39.0,47.0,43.0,38.0,99,79,44,30.00,29.92,7,2,13,0.00
2013-3-26,72.0,53.7,45.0,50.0,45.2,43.0,94,76,44,29.98,29.92,5,2,10,0.00
2013-3-27,68.0,54.3,45.0,54.0,48.1,42.0,95,81,57,30.01,29.93,8,3,15,0.00
2013-3-28,72.0,59.0,53.0,56.0,52.2,50.0,99,80,52,30.09,29.99,9,2,13,0.04
2013-3-29,79.0,60.9,49.0,55.0,50.7,47.0,98,73,39,30.08,30.02,7,2,20,0.01
2013-3-30,73.0,59.1,53.0,55.0,50.8,-99.9,97,79,44,30.06,29.98,8,2,15,0.06
2013-3-31,67.0,56.5,49.0,56.0,51.3,48.0,99,85,54,30.07,29.99,8,2,15,0.11
2013-4-1,70.0,56.5,49.0,57.0,51.2,46.0,99,84,49,30.14,30.04,7,2,13,0.11
2013-4-2,72.0,56.0,45.0,54.0,49.0,44.0,100,80,48,30.16,30.07,7,2,13,0.01
2013-4-3,78.0,58.8,45.0,53.0,48.5,44.0,100,73,35,30.13,29.98,6,2,10,0.00
2013-4-4,63.0,55.4,50.0,57.0,52.5,49.0,99,91,75,30.10,30.00,8,3,14,0.40
2013-4-5,65.0,55.9,51.0,55.0,51.2,49.0,99,85,60,30.17,30.10,8,3,14,0.03
2013-4-6,67.0,55.5,50.0,55.0,51.5,49.0,97,87,64,30.17,30.11,6,2,13,0.01
2013-4-7,67.0,53.8,47.0,55.0,49.6,46.0,100,87,57,30.16,29.83,11,4,21,0.10
2013-4-8,67.0,53.8,43.0,50.0,37.1,26.0,99,59,24,30.00,29.76,15,10,32,0.11
2013-4-9,74.0,62.9,53.0,35.0,31.2,26.0,46,32,17,30.10,30.00,15,9,35,0.00
2013-4-10,88.0,71.3,56.0,52.0,44.0,33.0,80,40,23,30.19,30.06,10,5,25,0.00
2013-4-11,77.0,58.6,49.0,53.0,48.7,46.0,97,73,39,30.07,29.83,8,3,13,0.00
2013-4-12,82.0,57.4,42.0,53.0,45.8,41.0,99,71,24,29.89,29.81,8,2,16,0.00
2013-4-13,72.0,54.1,44.0,53.0,46.2,43.0,98,78,48,29.88,29.81,7,2,12,0.00
2013-4-14,73.0,53.2,40.0,47.0,43.0,39.0,100,73,36,29.89,29.82,11,3,21,0.00
2013-4-15,64.0,50.5,44.0,48.0,41.5,36.0,95,73,40,29.90,29.82,16,6,26,0.00
2013-4-16,67.0,51.8,37.0,39.0,32.3,21.0,94,55,18,30.12,29.90,15,4,27,0.00
2013-4-17,68.0,58.4,51.0,31.0,27.0,20.0,46,31,18,30.24,30.11,14,7,27,0.00
2013-4-18,76.0,58.3,42.0,42.0,35.7,30.0,74,47,20,30.25,30.16,8,2,14,0.00
2013-4-19,85.0,63.7,47.0,49.0,43.8,39.0,76,52,25,30.21,30.05,7,2,13,0.00
2013-4-20,82.0,63.2,48.0,48.0,43.6,35.0,91,55,19,30.08,29.97,10,2,26,0.00
2013-4-21,87.0,66.7,49.0,47.0,40.0,30.0,80,45,14,30.04,29.95,11,3,21,0.00
2013-4-22,88.0,70.9,55.0,47.0,38.8,25.0,67,37,11,29.98,29.86,9,3,19,0.00
2013-4-23,83.0,69.0,54.0,43.0,30.5,19.0,61,27,12,29.96,29.83,15,5,36,0.00
2013-4-24,78.0,57.9,44.0,52.0,44.7,39.0,91,65,30,29.93,29.76,7,2,14,0.00
2013-4-25,71.0,57.0,48.0,54.0,49.2,46.0,96,77,50,30.04,29.90,8,4,13,0.00
2013-4-26,80.0,65.4,49.0,55.0,50.1,45.0,88,60,40,30.22,30.13,6,3,11,0.00
2013-4-27,86.0,60.7,44.0,57.0,48.7,44.0,100,70,32,30.17,30.02,6,2,11,0.00
2013-4-28,90.0,65.9,46.0,55.0,49.3,44.0,96,62,25,30.06,29.85,9,2,13,0.00
2013-4-29,94.0,73.4,56.0,52.0,46.7,38.0,82,45,16,29.93,29.79,9,3,27,0.00
2013-4-30,84.0,67.5,51.0,52.0,37.8,12.0,91,45,11,29.87,29.80,17,3,33,0.00
2013-5-1,82.0,72.2,58.0,39.0,22.1,12.0,40,16,10,30.11,29.84,16,7,37,0.00
2013-5-2,91.0,73.2,57.0,41.0,30.0,14.0,50,25,9,30.18,30.06,10,3,24,0.00
2013-5-3,92.0,71.5,54.0,45.0,37.1,32.0,60,33,13,30.09,29.83,8,2,13,0.00
2013-5-4,91.0,70.2,54.0,49.0,38.0,28.0,82,37,12,29.84,29.56,10,3,28,0.00
2013-5-5,69.0,58.5,50.0,50.0,47.5,44.0,84,68,48,29.80,29.62,10,3,15,0.00
2013-5-6,69.0,59.5,52.0,58.0,50.8,47.0,89,74,51,29.96,29.79,8,2,15,0.09
2013-5-7,72.0,60.0,50.0,53.0,49.8,46.0,96,71,43,30.02,29.92,8,3,14,0.08
2013-5-8,72.0,56.8,50.0,54.0,50.2,48.0,96,80,44,30.13,30.01,9,3,16,0.00
2013-5-9,73.0,57.2,50.0,54.0,49.9,47.0,96,79,50,30.17,30.06,6,3,14,0.00
2013-5-10,80.0,58.8,49.0,58.0,49.2,-99.9,98,78,42,30.17,30.09,6,2,10,0.00
2013-5-11,94.0,68.0,50.0,58.0,50.2,-99.9,96,62,17,30.12,30.01,7,2,11,0.00
2013-5-12,90.0,68.4,52.0,55.0,49.9,44.0,82,56,22,30.13,30.03,9,3,17,0.00
2013-5-13,87.0,63.8,48.0,58.0,51.4,46.0,93,68,34,30.08,29.93,6,2,12,0.00
2013-5-14,75.0,59.9,50.0,54.0,49.6,45.0,96,72,39,30.00,29.91,8,2,15,0.00
2013-5-15,67.0,55.5,46.0,50.0,47.5,44.0,95,76,51,30.05,29.95,9,4,15,0.00
2013-5-16,71.0,54.5,49.0,56.0,36.3,-99.9,98,82,49,30.01,29.93,8,3,17,0.01
2013-5-17,72.0,56.4,48.0,50.0,44.3,-99.9,96,74,43,30.08,29.93,8,3,15,0.01
2013-5-18,78.0,60.0,49.0,54.0,49.1,45.0,93,71,36,30.11,30.02,7,3,15,0.00
2013-5-19,87.0,65.1,47.0,52.0,44.7,32.0,97,57,15,30.11,29.96,10,3,17,0.00
2013-5-20,91.0,69.7,54.0,48.0,40.0,29.0,75,40,12,30.01,29.92,8,3,17,0.00
2013-5-21,75.0,58.9,50.0,52.0,46.4,40.0,91,66,34,29.98,29.86,10,4,20,0.00
2013-5-22,70.0,54.2,41.0,43.0,36.1,25.0,87,56,18,29.97,29.85,11,4,18,0.00
2013-5-23,71.0,54.6,43.0,46.0,43.0,40.0,97,69,41,29.99,29.86,7,2,15,0.00
2013-5-24,74.0,55.1,43.0,48.0,43.0,37.0,98,69,28,29.97,29.91,8,2,15,0.00
2013-5-25,68.0,54.0,45.0,49.0,46.0,43.0,94,76,46,30.02,29.91,9,3,15,0.00
2013-5-26,75.0,58.7,49.0,53.0,50.1,47.0,96,76,43,30.11,29.99,10,5,22,0.00
2013-5-27,64.0,55.7,49.0,55.0,51.3,48.0,96,86,65,30.10,29.96,9,3,17,0.02
2013-5-28,74.0,60.9,54.0,57.0,54.1,50.0,99,81,51,29.99,29.89,8,3,16,0.03
2013-5-29,73.0,60.6,51.0,55.0,51.6,48.0,93,74,49,29.95,29.87,10,3,16,0.00
2013-5-30,81.0,60.5,47.0,52.0,47.8,41.0,98,68,31,30.00,29.88,7,2,14,0.00
2013-5-31,92.0,67.8,48.0,50.0,44.8,34.0,92,53,14,29.99,29.90,9,3,17,0.00
2013-6-1,96.0,74.7,54.0,52.0,45.0,35.0,77,41,12,29.95,29.76,10,3,15,0.00
2013-6-2,85.0,65.3,54.0,55.0,50.1,47.0,83,61,34,29.82,29.70,5,1,9,0.00
2013-6-3,83.0,63.9,51.0,55.0,50.6,48.0,93,66,36,29.85,29.68,9,3,14,0.00
2013-6-4,78.0,59.7,51.0,55.0,51.2,48.0,96,76,44,29.94,29.79,9,3,15,0.00
2013-6-5,78.0,60.4,51.0,54.0,50.6,48.0,96,74,38,29.96,29.87,6,2,11,0.00
2013-6-6,87.0,63.7,50.0,58.0,52.2,48.0,97,71,33,29.91,29.81,6,2,10,0.00
2013-6-7,102.0,71.6,51.0,60.0,53.5,49.0,96,61,20,29.85,29.75,9,2,15,0.00
2013-6-8,106.0,80.0,64.0,58.0,53.1,49.0,69,44,15,29.81,29.67,8,2,15,0.00
2013-6-9,77.0,63.7,56.0,57.0,54.1,52.0,91,72,50,29.87,29.78,11,5,17,0.00
2013-6-10,73.0,60.8,53.0,54.0,51.7,50.0,89,73,51,29.94,29.78,10,5,19,0.00
2013-6-11,80.0,62.1,52.0,55.0,52.0,49.0,95,73,42,29.97,29.87,6,2,10,0.00
2013-6-12,80.0,62.4,50.0,51.0,48.1,44.0,92,64,30,29.96,29.85,7,2,14,0.00
2013-6-13,86.0,62.9,46.0,50.0,45.6,38.0,97,61,19,30.06,29.93,9,3,15,0.00
2013-6-14,87.0,66.2,51.0,50.0,42.9,33.0,85,50,17,29.99,29.65,8,2,15,0.00
2013-6-15,75.0,58.8,47.0,52.0,46.3,39.0,93,66,42,29.96,29.70,7,2,14,0.00
2013-6-16,85.0,61.7,46.0,52.0,47.8,39.0,97,67,21,30.07,29.90,10,2,17,0.00
2013-6-17,77.0,60.5,48.0,56.0,51.2,46.0,96,74,45,30.07,29.98,8,3,15,0.00
2013-6-18,69.0,58.7,51.0,52.0,49.0,43.0,97,73,41,30.03,29.84,11,5,20,0.00
2013-6-19,78.0,60.2,46.0,49.0,46.9,44.0,94,66,33,30.02,29.91,9,3,18,0.00
2013-6-20,79.0,56.4,46.0,51.0,47.3,44.0,97,76,32,29.97,29.86,7,1,15,0.00
2013-6-21,83.0,80.5,76.0,50.0,46.8,45.0,35,31,27,29.94,29.89,6,5,12,0.00
2013-6-22,90.0,75.5,50.0,52.0,47.0,38.0,90,42,18,29.92,29.80,7,3,15,0.00
2013-6-23,67.0,59.1,53.0,59.0,55.4,52.0,99,88,72,29.88,29.75,9,4,17,0.00
2013-6-24,64.0,60.1,57.0,60.0,57.9,56.0,97,92,86,29.91,29.74,4,1,9,0.06
2013-6-25,75.0,64.4,59.0,62.0,59.2,56.0,96,84,62,29.98,29.83,8,2,13,0.04
2013-6-26,85.0,69.2,58.0,61.0,57.7,52.0,93,71,39,30.03,29.82,9,3,14,0.01
2013-6-27,93.0,62.8,50.0,56.0,52.7,47.0,97,74,21,30.06,29.88,7,1,10,0.00
2013-6-28,98.0,73.3,59.0,61.0,55.0,43.0,84,58,21,30.04,29.56,7,1,14,0.00
2013-6-29,101.0,82.3,56.0,52.0,49.6,45.0,66,36,17,29.78,29.39,8,3,13,0.00
2013-10-18,82.0,67.3,49.0,44.0,42.1,38.0,67,44,23,30.00,29.95,6,2,9,0.00
2013-10-19,85.0,61.5,50.0,48.0,40.2,-99.9,78,53,23,30.03,29.97,5,1,10,0.00
2013-10-20,85.0,62.7,49.0,48.0,44.3,34.0,85,57,17,30.00,29.87,6,1,12,0.00
2013-10-21,80.0,58.8,47.0,51.0,47.4,43.0,95,69,32,29.94,29.87,5,1,8,0.00
2013-10-22,81.0,62.2,47.0,55.0,49.6,46.0,99,68,33,29.96,29.88,5,1,9,0.00
2013-10-23,81.0,58.0,47.0,55.0,50.0,46.0,100,79,34,29.92,29.85,6,1,9,0.00
2013-10-24,62.0,52.6,47.0,52.0,49.6,46.0,100,90,67,30.01,29.92,6,2,10,0.00
2013-10-25,75.0,59.2,47.0,54.0,49.8,47.0,100,74,39,30.10,30.04,6,2,10,0.00
2013-10-26,80.0,58.2,47.0,53.0,44.9,-99.9,99,69,32,30.09,29.98,6,2,11,0.00
2013-10-27,61.0,52.5,46.0,54.0,49.0,45.0,100,88,68,29.99,29.61,12,4,24,0.00
2013-10-28,62.0,50.5,44.0,51.0,44.7,-99.9,100,88,57,29.80,29.59,6,2,11,0.00
2013-10-29,63.0,53.0,45.0,50.0,48.1,44.0,99,85,55,29.98,29.80,7,1,12,0.00
2013-10-30,68.0,51.3,42.0,52.0,45.5,42.0,100,83,49,30.09,29.98,7,2,12,0.00
2013-10-31,69.0,51.5,43.0,52.0,45.5,43.0,100,84,48,30.11,30.06,4,1,7,0.00